Time;durP1;ratioP1;P1;durP2;ratioP2;P2;SDS_P1;SDS_P2;PMS_P1;PMS_P2;Temp;Humidity;BMP_temperature;BMP_pressure;BME280_temperature;BME280_humidity;BME280_pressure;Samples;Min_cycle;Max_cycle;Signal;HPM_P1;HPM_P2
2021/12/02 00:00:39;;;;;;;;;;;;;;;;;;1912290;28;7057;-66
2021/12/02 00:01:37;;;;;;;;;;;;;;;;;;1913554;28;7046;-66
2021/12/02 00:02:37;;;;;;;;;;;;;;;;;;1913186;28;7013;-65
2021/12/02 00:03:35;;;;;;;;;;;;;;;;;;1912976;28;7013;-65
2021/12/02 00:04:34;;;;;;;;;;;;;;;;;;1912736;28;7005;-66
2021/12/02 00:05:32;;;;;;;;;;;;;;;;;;1912864;28;8106;-66
2021/12/02 00:06:29;;;;;;;;;;;;;;;;;;1910951;28;7044;-65
2021/12/02 00:07:27;;;;;;;;;;;;;;;;;;1905198;28;7516;-66
2021/12/02 00:08:24;;;;;;;;;;;;;;;;;;1905759;28;7009;-66
2021/12/02 00:09:21;;;;;;;;;;;;;;;;;;1905951;28;8027;-66
2021/12/02 00:10:19;;;;;;;;;;;;;;;;;;1905449;28;7009;-66
2021/12/02 00:11:18;;;;;;;;;;;;;;;;;;1905673;28;7096;-66
2021/12/02 00:12:15;;;;;;;;;;;;;;;;;;1905962;28;7096;-66
2021/12/02 00:13:13;;;;;;;;;;;;;;;;;;1905567;28;7169;-66
2021/12/02 00:14:13;;;;;;;;;;;;;;;;;;1908440;28;7123;-66
2021/12/02 00:15:18;;;;;;;;;;;;;;;;;;1912734;28;7096;-66
2021/12/02 00:16:22;;;;;;;;;;;;;;;;;;1912915;28;7006;-66
2021/12/02 00:17:28;;;;;;;;;;;;;;;;;;1912987;28;7005;-65
2021/12/02 00:22:02;;;;;;;;;;;;;;;;;;1913012;28;7006;-66
2021/12/02 00:23:18;;;;;;;;;;;;;;;;;;1914395;28;7088;-66
2021/12/02 00:24:19;;;;;;;;;;;;;;;;;;1913925;28;7120;-66
2021/12/02 00:25:16;;;;;;;;;;;;;;;;;;1913880;28;7009;-66
2021/12/02 00:26:16;;;;;;;;;;;;;;;;;;1908165;28;7117;-66
2021/12/02 00:27:16;;;;;;;;;;;;;;;;;;1906653;28;7057;-66
2021/12/02 00:28:13;;;;;;;;;;;;;;;;;;1905894;28;7010;-66
2021/12/02 00:29:11;;;;;;;;;;;;;;;;;;1905320;28;7021;-65
2021/12/02 00:30:08;;;;;;;;;;;;;;;;;;1906160;28;7009;-66
2021/12/02 00:31:11;;;;;;;;;;;;;;;;;;1906482;28;7096;-66
2021/12/02 00:32:10;;;;;;;;;;;;;;;;;;1906454;28;7013;-66
2021/12/02 00:33:07;;;;;;;;;;;;;;;;;;1905825;28;7013;-66
2021/12/02 00:34:07;;;;;;;;;;;;;;;;;;1906102;28;7096;-66
2021/12/02 00:35:04;;;;;;;;;;;;;;;;;;1907625;28;7009;-65
2021/12/02 00:36:02;;;;;;;;;;;;;;;;;;1905501;28;7117;-66
2021/12/02 00:37:01;;;;;;;;;;;;;;;;;;1906516;28;7416;-66
2021/12/02 00:38:01;;;;;;;;;;;;;;;;;;1906907;28;7017;-66
2021/12/02 00:39:03;;;;;;;;;;;;;;;;;;1906704;28;7041;-66
2021/12/02 00:40:01;;;;;;;;;;;;;;;;;;1907007;28;7096;-65
2021/12/02 00:40:59;;;;;;;;;;;;;;;;;;1906448;28;7018;-65
2021/12/02 00:41:56;;;;;;;;;;;;;;;;;;1907202;28;7025;-66
2021/12/02 00:42:58;;;;;;;;;;;;;;;;;;1909845;28;7029;-66
2021/12/02 00:43:57;;;;;;;;;;;;;;;;;;1914440;28;7025;-65
2021/12/02 00:44:57;;;;;;;;;;;;;;;;;;1909203;28;7069;-66
2021/12/02 00:45:54;;;;;;;;;;;;;;;;;;1907177;28;7009;-66
2021/12/02 00:46:51;;;;;;;;;;;;;;;;;;1906063;28;7435;-66
2021/12/02 00:47:49;;;;;;;;;;;;;;;;;;1905926;28;7059;-66
2021/12/02 00:48:47;;;;;;;;;;;;;;;;;;1906502;28;7970;-66
2021/12/02 00:49:46;;;;;;;;;;;;;;;;;;1906236;28;7248;-65
2021/12/02 00:50:48;;;;;;;;;;;;;;;;;;1907059;28;7124;-65
2021/12/02 00:51:48;;;;;;;;;;;;;;;;;;1907075;28;7017;-65
2021/12/02 00:52:46;;;;;;;;;;;;;;;;;;1906556;28;7014;-66
2021/12/02 00:53:46;;;;;;;;;;;;;;;;;;1906576;28;7426;-66
2021/12/02 00:54:44;;;;;;;;;;;;;;;;;;1906838;28;7009;-66
2021/12/02 00:55:42;;;;;;;;;;;;;;;;;;1906512;28;7202;-65
2021/12/02 00:56:40;;;;;;;;;;;;;;;;;;1906486;28;7231;-65
2021/12/02 00:57:41;;;;;;;;;;;;;;;;;;1906553;28;7462;-65
2021/12/02 00:58:39;;;;;;;;;;;;;;;;;;1905941;28;7100;-65
2021/12/02 00:59:37;;;;;;;;;;;;;;;;;;1908595;28;7013;-65
2021/12/02 01:00:34;;;;;;;;;;;;;;;;;;1913902;28;7089;-66
2021/12/02 01:01:38;;;;;;;;;;;;;;;;;;1913881;28;7121;-66
2021/12/02 01:02:37;;;;;;;;;;;;;;;;;;1906561;28;7006;-66
2021/12/02 01:03:36;;;;;;;;;;;;;;;;;;1906513;28;7017;-65
2021/12/02 01:04:34;;;;;;;;;;;;;;;;;;1908062;28;7092;-65
2021/12/02 01:05:31;;;;;;;;;;;;;;;;;;1905459;28;7022;-65
2021/12/02 01:06:29;;;;;;;;;;;;;;;;;;1907161;28;7009;-65
2021/12/02 01:07:26;;;;;;;;;;;;;;;;;;1906891;28;7046;-66
2021/12/02 01:08:25;;;;;;;;;;;;;;;;;;1909455;28;8326;-66
2021/12/02 01:09:22;;;;;;;;;;;;;;;;;;1914077;28;7092;-66
2021/12/02 01:10:21;;;;;;;;;;;;;;;;;;1914300;28;7089;-65
2021/12/02 01:11:18;;;;;;;;;;;;;;;;;;1914077;28;7005;-65
2021/12/02 01:12:17;;;;;;;;;;;;;;;;;;1914143;28;7046;-65
2021/12/02 01:13:15;;;;;;;;;;;;;;;;;;1914256;28;7100;-65
2021/12/02 01:14:13;;;;;;;;;;;;;;;;;;1909152;28;7021;-65
2021/12/02 01:15:11;;;;;;;;;;;;;;;;;;1914080;28;8977;-65
2021/12/02 01:16:08;;;;;;;;;;;;;;;;;;1913297;28;7005;-65
2021/12/02 01:17:06;;;;;;;;;;;;;;;;;;1913230;28;7054;-66
2021/12/02 01:18:03;;;;;;;;;;;;;;;;;;1919782;28;7738;-66
2021/12/02 01:19:01;;;;;;;;;;;;;;;;;;1920480;28;7017;-66
2021/12/02 01:19:58;;;;;;;;;;;;;;;;;;1914169;28;8026;-66
2021/12/02 01:20:58;;;;;;;;;;;;;;;;;;1913567;28;7104;-66
2021/12/02 01:21:55;;;;;;;;;;;;;;;;;;1913594;28;7302;-65
2021/12/02 01:22:54;;;;;;;;;;;;;;;;;;1913641;28;7149;-66
2021/12/02 01:23:54;;;;;;;;;;;;;;;;;;1913759;28;7303;-65
2021/12/02 01:24:52;;;;;;;;;;;;;;;;;;1905052;28;7347;-65
2021/12/02 01:25:54;;;;;;;;;;;;;;;;;;1906101;28;7005;-65
2021/12/02 01:26:53;;;;;;;;;;;;;;;;;;1904800;28;7014;-66
2021/12/02 01:27:52;;;;;;;;;;;;;;;;;;1906244;28;7001;-65
2021/12/02 01:28:50;;;;;;;;;;;;;;;;;;1906431;28;7037;-65
2021/12/02 01:29:48;;;;;;;;;;;;;;;;;;1906459;28;7131;-65
2021/12/02 01:30:46;;;;;;;;;;;;;;;;;;1906086;28;7351;-66
2021/12/02 01:31:48;;;;;;;;;;;;;;;;;;1905189;28;7013;-65
2021/12/02 01:32:48;;;;;;;;;;;;;;;;;;1905964;28;8043;-66
2021/12/02 01:33:46;;;;;;;;;;;;;;;;;;1912390;28;7130;-66
2021/12/02 01:34:46;;;;;;;;;;;;;;;;;;1912574;28;8035;-65
2021/12/02 01:35:48;;;;;;;;;;;;;;;;;;1906602;28;7006;-65
2021/12/02 01:36:46;;;;;;;;;;;;;;;;;;1906324;28;7092;-65
2021/12/02 01:37:45;;;;;;;;;;;;;;;;;;1907161;28;8161;-65
2021/12/02 01:38:45;;;;;;;;;;;;;;;;;;1906767;28;7474;-65
2021/12/02 01:39:43;;;;;;;;;;;;;;;;;;1906460;28;7379;-65
2021/12/02 01:40:43;;;;;;;;;;;;;;;;;;1906206;28;7013;-65
2021/12/02 01:41:45;;;;;;;;;;;;;;;;;;1906164;28;8050;-65
2021/12/02 01:42:45;;;;;;;;;;;;;;;;;;1906614;28;7109;-66
2021/12/02 01:43:45;;;;;;;;;;;;;;;;;;1906467;28;7041;-66
2021/12/02 01:44:43;;;;;;;;;;;;;;;;;;1906302;28;7469;-66
2021/12/02 01:45:41;;;;;;;;;;;;;;;;;;1905597;28;8059;-66
2021/12/02 01:46:41;;;;;;;;;;;;;;;;;;1907321;28;7030;-66
2021/12/02 01:47:46;;;;;;;;;;;;;;;;;;1905676;28;7009;-66
2021/12/02 01:48:47;;;;;;;;;;;;;;;;;;1906219;28;7025;-65
2021/12/02 01:49:45;;;;;;;;;;;;;;;;;;1913891;28;7041;-65
2021/12/02 01:50:43;;;;;;;;;;;;;;;;;;1914009;28;7009;-66
2021/12/02 01:51:46;;;;;;;;;;;;;;;;;;1913721;28;7113;-66
2021/12/02 01:52:44;;;;;;;;;;;;;;;;;;1913887;28;8173;-65
2021/12/02 01:53:42;;;;;;;;;;;;;;;;;;1913733;28;7323;-66
2021/12/02 01:54:44;;;;;;;;;;;;;;;;;;1907748;28;7017;-65
2021/12/02 01:55:43;;;;;;;;;;;;;;;;;;1906419;28;7249;-66
2021/12/02 01:56:43;;;;;;;;;;;;;;;;;;1906870;28;7021;-65
2021/12/02 01:57:42;;;;;;;;;;;;;;;;;;1906404;28;7250;-65
2021/12/02 01:58:41;;;;;;;;;;;;;;;;;;1906674;28;7002;-65
2021/12/02 01:59:39;;;;;;;;;;;;;;;;;;1908430;28;7005;-65
2021/12/02 02:00:42;;;;;;;;;;;;;;;;;;1913899;28;7037;-65
2021/12/02 02:01:42;;;;;;;;;;;;;;;;;;1913874;28;7084;-66
2021/12/02 02:02:40;;;;;;;;;;;;;;;;;;1905430;28;7088;-66
2021/12/02 02:03:38;;;;;;;;;;;;;;;;;;1905669;28;7053;-66
2021/12/02 02:04:36;;;;;;;;;;;;;;;;;;1906194;28;7013;-66
2021/12/02 02:05:34;;;;;;;;;;;;;;;;;;1906508;28;7005;-66
2021/12/02 02:06:46;;;;;;;;;;;;;;;;;;1906031;28;7092;-65
2021/12/02 02:07:49;;;;;;;;;;;;;;;;;;1906044;28;7089;-65
2021/12/02 02:08:48;;;;;;;;;;;;;;;;;;1906096;28;7097;-66
2021/12/02 02:09:45;;;;;;;;;;;;;;;;;;1905908;28;7025;-66
2021/12/02 02:10:44;;;;;;;;;;;;;;;;;;1906488;28;7025;-65
2021/12/02 02:11:42;;;;;;;;;;;;;;;;;;1906249;28;7102;-66
2021/12/02 02:12:39;;;;;;;;;;;;;;;;;;1906734;28;7037;-66
2021/12/02 02:13:37;;;;;;;;;;;;;;;;;;1906130;28;7172;-65
2021/12/02 02:14:35;;;;;;;;;;;;;;;;;;1912629;28;7103;-65
2021/12/02 02:15:33;;;;;;;;;;;;;;;;;;1912854;28;7109;-65
2021/12/02 02:16:32;;;;;;;;;;;;;;;;;;1910069;28;8022;-66
2021/12/02 02:17:35;;;;;;;;;;;;;;;;;;1905818;28;7034;-65
2021/12/02 02:18:32;;;;;;;;;;;;;;;;;;1904547;28;7121;-65
2021/12/02 02:19:32;;;;;;;;;;;;;;;;;;1905555;28;7088;-65
2021/12/02 02:20:38;;;;;;;;;;;;;;;;;;1905505;28;7001;-65
2021/12/02 02:21:36;;;;;;;;;;;;;;;;;;1903902;28;7009;-65
2021/12/02 02:22:34;;;;;;;;;;;;;;;;;;1905454;28;8036;-65
2021/12/02 02:23:34;;;;;;;;;;;;;;;;;;1906264;28;7005;-66
2021/12/02 02:24:32;;;;;;;;;;;;;;;;;;1904806;28;8019;-66
2021/12/02 02:25:29;;;;;;;;;;;;;;;;;;1905719;28;7009;-65
2021/12/02 02:26:34;;;;;;;;;;;;;;;;;;1905386;28;7213;-66
2021/12/02 02:27:31;;;;;;;;;;;;;;;;;;1905690;28;7041;-66
2021/12/02 02:28:29;;;;;;;;;;;;;;;;;;1905340;28;7096;-66
2021/12/02 02:29:27;;;;;;;;;;;;;;;;;;1904250;28;7097;-66
2021/12/02 02:30:25;;;;;;;;;;;;;;;;;;1905992;28;7005;-66
2021/12/02 02:31:23;;;;;;;;;;;;;;;;;;1913646;28;7093;-65
2021/12/02 02:32:24;;;;;;;;;;;;;;;;;;1912450;28;7009;-65
2021/12/02 02:33:23;;;;;;;;;;;;;;;;;;1904968;28;7147;-66
2021/12/02 02:34:24;;;;;;;;;;;;;;;;;;1905656;28;7017;-66
2021/12/02 02:35:21;;;;;;;;;;;;;;;;;;1913029;28;7145;-65
2021/12/02 02:36:21;;;;;;;;;;;;;;;;;;1905152;28;7552;-65
2021/12/02 02:37:18;;;;;;;;;;;;;;;;;;1904287;28;7013;-65
2021/12/02 02:38:16;;;;;;;;;;;;;;;;;;1905852;28;7005;-65
2021/12/02 02:39:13;;;;;;;;;;;;;;;;;;1906243;28;7044;-65
2021/12/02 02:40:13;;;;;;;;;;;;;;;;;;1906069;28;7043;-66
2021/12/02 02:41:11;;;;;;;;;;;;;;;;;;1905876;28;7006;-65
2021/12/02 02:42:09;;;;;;;;;;;;;;;;;;1905283;28;7005;-65
2021/12/02 02:43:08;;;;;;;;;;;;;;;;;;1905835;28;7296;-66
2021/12/02 02:44:06;;;;;;;;;;;;;;;;;;1906361;28;7021;-66
2021/12/02 02:45:04;;;;;;;;;;;;;;;;;;1906057;28;7063;-66
2021/12/02 02:46:02;;;;;;;;;;;;;;;;;;1905883;28;7009;-66
2021/12/02 02:47:00;;;;;;;;;;;;;;;;;;1906512;28;7088;-66
2021/12/02 02:47:57;;;;;;;;;;;;;;;;;;1910454;28;7117;-66
2021/12/02 02:48:55;;;;;;;;;;;;;;;;;;1908956;28;7188;-65
2021/12/02 02:49:53;;;;;;;;;;;;;;;;;;1912533;28;7096;-66
2021/12/02 02:50:51;;;;;;;;;;;;;;;;;;1904058;28;7136;-66
2021/12/02 02:51:48;;;;;;;;;;;;;;;;;;1906331;28;7029;-66
2021/12/02 02:52:46;;;;;;;;;;;;;;;;;;1913616;28;7013;-66
2021/12/02 02:53:48;;;;;;;;;;;;;;;;;;1912675;28;7303;-66
2021/12/02 02:54:46;;;;;;;;;;;;;;;;;;1912975;28;7009;-66
2021/12/02 02:55:52;;;;;;;;;;;;;;;;;;1907155;28;7009;-66
2021/12/02 02:57:00;;;;;;;;;;;;;;;;;;1906184;28;7053;-66
2021/12/02 02:59:11;;;;;;;;;;;;;;;;;;1905642;28;7113;-66
2021/12/02 03:00:13;;;;;;;;;;;;;;;;;;1912453;28;7156;-66
2021/12/02 03:03:33;;;;;;;;;;;;;;;;;;1913261;28;7136;-65
2021/12/02 03:05:49;;;;;;;;;;;;;;;;;;1913157;28;7002;-65
2021/12/02 03:08:09;;;;;;;;;;;;;;;;;;1913136;28;7541;-65
2021/12/02 03:09:13;;;;;;;;;;;;;;;;;;1913099;28;7010;-66
2021/12/02 03:10:16;;;;;;;;;;;;;;;;;;1907849;28;7005;-65
2021/12/02 03:11:13;;;;;;;;;;;;;;;;;;1905569;28;8042;-66
2021/12/02 03:13:36;;;;;;;;;;;;;;;;;;1906051;28;7010;-66
2021/12/02 03:14:49;;;;;;;;;;;;;;;;;;1910777;28;7148;-66
2021/12/02 03:17:03;;;;;;;;;;;;;;;;;;1912469;28;7092;-66
2021/12/02 03:18:00;;;;;;;;;;;;;;;;;;1912385;28;7005;-66
2021/12/02 03:18:58;;;;;;;;;;;;;;;;;;1912601;28;7116;-66
2021/12/02 03:19:55;;;;;;;;;;;;;;;;;;1912543;28;7006;-65
2021/12/02 03:20:53;;;;;;;;;;;;;;;;;;1904673;28;9412;-66
2021/12/02 03:21:50;;;;;;;;;;;;;;;;;;1905455;28;7006;-66
2021/12/02 03:22:48;;;;;;;;;;;;;;;;;;1905182;28;7038;-66
2021/12/02 03:23:53;;;;;;;;;;;;;;;;;;1905351;28;8120;-66
2021/12/02 03:24:50;;;;;;;;;;;;;;;;;;1905351;28;7120;-65
2021/12/02 03:25:48;;;;;;;;;;;;;;;;;;1904168;28;7088;-66
2021/12/02 03:26:45;;;;;;;;;;;;;;;;;;1905074;28;8044;-66
2021/12/02 03:27:43;;;;;;;;;;;;;;;;;;1909435;28;7092;-66
2021/12/02 03:28:40;;;;;;;;;;;;;;;;;;1912416;28;7018;-66
2021/12/02 03:29:39;;;;;;;;;;;;;;;;;;1910536;28;7092;-66
2021/12/02 03:30:36;;;;;;;;;;;;;;;;;;1905680;28;7160;-66
2021/12/02 03:31:34;;;;;;;;;;;;;;;;;;1906393;28;7343;-65
2021/12/02 03:32:32;;;;;;;;;;;;;;;;;;1905773;28;7096;-66
2021/12/02 03:33:30;;;;;;;;;;;;;;;;;;1904434;28;8019;-66
2021/12/02 03:34:27;;;;;;;;;;;;;;;;;;1904855;28;7292;-66
2021/12/02 03:35:25;;;;;;;;;;;;;;;;;;1906019;28;7143;-66
2021/12/02 03:36:22;;;;;;;;;;;;;;;;;;1905614;28;7014;-65
2021/12/02 03:37:20;;;;;;;;;;;;;;;;;;1905348;28;7009;-66
2021/12/02 03:38:17;;;;;;;;;;;;;;;;;;1905475;28;7045;-66
2021/12/02 03:39:15;;;;;;;;;;;;;;;;;;1904931;28;7148;-65
2021/12/02 03:40:12;;;;;;;;;;;;;;;;;;1919415;28;7192;-66
2021/12/02 03:41:10;;;;;;;;;;;;;;;;;;1919846;28;7040;-66
2021/12/02 03:42:07;;;;;;;;;;;;;;;;;;1907266;28;7009;-65
2021/12/02 03:43:05;;;;;;;;;;;;;;;;;;1904226;28;7006;-66
2021/12/02 03:44:18;;;;;;;;;;;;;;;;;;1905446;28;7092;-66
2021/12/02 03:45:16;;;;;;;;;;;;;;;;;;1905496;28;7034;-66
2021/12/02 03:46:15;;;;;;;;;;;;;;;;;;1905909;28;7417;-66
2021/12/02 03:47:13;;;;;;;;;;;;;;;;;;1913028;28;7148;-66
2021/12/02 03:48:10;;;;;;;;;;;;;;;;;;1913055;28;7010;-66
2021/12/02 03:49:08;;;;;;;;;;;;;;;;;;1904969;28;8087;-65
2021/12/02 03:50:05;;;;;;;;;;;;;;;;;;1905893;28;7092;-66
2021/12/02 03:51:04;;;;;;;;;;;;;;;;;;1906033;28;7116;-66
2021/12/02 03:52:02;;;;;;;;;;;;;;;;;;1905307;28;8115;-66
2021/12/02 03:52:59;;;;;;;;;;;;;;;;;;1905570;28;7096;-66
2021/12/02 03:53:57;;;;;;;;;;;;;;;;;;1907913;28;7377;-66
2021/12/02 03:54:54;;;;;;;;;;;;;;;;;;1907604;28;7088;-66
2021/12/02 03:55:52;;;;;;;;;;;;;;;;;;1907239;28;7137;-66
2021/12/02 03:56:49;;;;;;;;;;;;;;;;;;1905935;28;7006;-66
2021/12/02 03:57:47;;;;;;;;;;;;;;;;;;1906888;28;7064;-66
2021/12/02 03:58:45;;;;;;;;;;;;;;;;;;1907355;28;8115;-66
2021/12/02 03:59:43;;;;;;;;;;;;;;;;;;1910296;28;7100;-66
2021/12/02 04:00:40;;;;;;;;;;;;;;;;;;1914413;28;7089;-66
2021/12/02 04:01:38;;;;;;;;;;;;;;;;;;1913664;28;7021;-66
2021/12/02 04:02:35;;;;;;;;;;;;;;;;;;1906020;28;7164;-66
2021/12/02 04:03:33;;;;;;;;;;;;;;;;;;1912679;28;8031;-66
2021/12/02 04:04:31;;;;;;;;;;;;;;;;;;1914105;28;7146;-66
2021/12/02 04:05:28;;;;;;;;;;;;;;;;;;1914421;28;7089;-66
2021/12/02 04:06:26;;;;;;;;;;;;;;;;;;1914003;28;7093;-66
2021/12/02 04:07:26;;;;;;;;;;;;;;;;;;1915020;28;7005;-66
2021/12/02 04:08:30;;;;;;;;;;;;;;;;;;1915007;28;8038;-66
2021/12/02 04:09:34;;;;;;;;;;;;;;;;;;1915240;28;7036;-66
2021/12/02 04:10:32;;;;;;;;;;;;;;;;;;1914445;28;7017;-65
2021/12/02 04:12:44;;;;;;;;;;;;;;;;;;1914556;28;7040;-66
2021/12/02 04:15:06;;;;;;;;;;;;;;;;;;1906768;28;7002;-66
2021/12/02 04:16:13;;;;;;;;;;;;;;;;;;1906616;28;7009;-65
2021/12/02 04:17:13;;;;;;;;;;;;;;;;;;1906686;28;7026;-65
2021/12/02 04:18:10;;;;;;;;;;;;;;;;;;1905990;28;7120;-65
2021/12/02 04:19:09;;;;;;;;;;;;;;;;;;1906182;28;7005;-66
2021/12/02 04:20:10;;;;;;;;;;;;;;;;;;1906661;28;7014;-65
2021/12/02 04:21:08;;;;;;;;;;;;;;;;;;1906264;28;7041;-66
2021/12/02 04:22:05;;;;;;;;;;;;;;;;;;1911242;28;7104;-65
2021/12/02 04:23:03;;;;;;;;;;;;;;;;;;1914483;28;7040;-65
2021/12/02 04:24:01;;;;;;;;;;;;;;;;;;1914215;28;7038;-65
2021/12/02 04:24:58;;;;;;;;;;;;;;;;;;1913291;28;7312;-66
2021/12/02 04:25:55;;;;;;;;;;;;;;;;;;1905452;28;7042;-66
2021/12/02 04:26:53;;;;;;;;;;;;;;;;;;1912485;28;7026;-65
2021/12/02 04:27:52;;;;;;;;;;;;;;;;;;1906211;28;7094;-66
2021/12/02 04:28:49;;;;;;;;;;;;;;;;;;1906507;28;7001;-66
2021/12/02 04:29:46;;;;;;;;;;;;;;;;;;1906843;28;7088;-66
2021/12/02 04:30:44;;;;;;;;;;;;;;;;;;1907321;28;8026;-66
2021/12/02 04:31:43;;;;;;;;;;;;;;;;;;1906730;28;7082;-65
2021/12/02 04:32:41;;;;;;;;;;;;;;;;;;1906811;28;7002;-66
2021/12/02 04:33:38;;;;;;;;;;;;;;;;;;1906051;28;7066;-66
2021/12/02 04:34:36;;;;;;;;;;;;;;;;;;1913977;28;8014;-65
2021/12/02 04:35:33;;;;;;;;;;;;;;;;;;1914759;28;7104;-65
2021/12/02 04:36:31;;;;;;;;;;;;;;;;;;1914021;28;7321;-65
2021/12/02 04:37:29;;;;;;;;;;;;;;;;;;1915146;28;7013;-65
2021/12/02 04:38:27;;;;;;;;;;;;;;;;;;1914093;28;7009;-66
2021/12/02 04:39:25;;;;;;;;;;;;;;;;;;1914367;28;7386;-66
2021/12/02 04:40:24;;;;;;;;;;;;;;;;;;1906676;28;7049;-65
2021/12/02 04:41:21;;;;;;;;;;;;;;;;;;1906653;28;7033;-65
2021/12/02 04:42:19;;;;;;;;;;;;;;;;;;1906900;28;7029;-66
2021/12/02 04:43:16;;;;;;;;;;;;;;;;;;1906634;28;7096;-66
2021/12/02 04:44:18;;;;;;;;;;;;;;;;;;1907428;28;7009;-66
2021/12/02 04:45:16;;;;;;;;;;;;;;;;;;1907605;28;7033;-66
2021/12/02 04:46:14;;;;;;;;;;;;;;;;;;1906963;28;7112;-66
2021/12/02 04:47:12;;;;;;;;;;;;;;;;;;1913659;28;7324;-66
2021/12/02 04:48:09;;;;;;;;;;;;;;;;;;1908691;28;8110;-66
2021/12/02 04:49:06;;;;;;;;;;;;;;;;;;1906555;28;7013;-66
2021/12/02 04:50:06;;;;;;;;;;;;;;;;;;1906991;28;7001;-66
2021/12/02 04:51:03;;;;;;;;;;;;;;;;;;1906639;28;7038;-66
2021/12/02 04:52:01;;;;;;;;;;;;;;;;;;1906251;28;7058;-66
2021/12/02 04:52:59;;;;;;;;;;;;;;;;;;1906894;28;7002;-66
2021/12/02 04:53:56;;;;;;;;;;;;;;;;;;1907194;28;7096;-66
2021/12/02 04:54:54;;;;;;;;;;;;;;;;;;1906775;28;7006;-66
2021/12/02 04:55:51;;;;;;;;;;;;;;;;;;1906687;28;7283;-66
2021/12/02 04:56:49;;;;;;;;;;;;;;;;;;1906544;28;7041;-66
2021/12/02 04:57:47;;;;;;;;;;;;;;;;;;1906896;28;7407;-65
2021/12/02 04:58:45;;;;;;;;;;;;;;;;;;1905990;28;7053;-65
2021/12/02 04:59:42;;;;;;;;;;;;;;;;;;1907820;28;7013;-66
2021/12/02 05:00:40;;;;;;;;;;;;;;;;;;1906840;28;7452;-66
2021/12/02 05:01:37;;;;;;;;;;;;;;;;;;1905632;28;7038;-65
2021/12/02 05:02:35;;;;;;;;;;;;;;;;;;1906944;28;7010;-65
2021/12/02 05:03:33;;;;;;;;;;;;;;;;;;1906735;28;7024;-65
2021/12/02 05:04:30;;;;;;;;;;;;;;;;;;1906546;28;7096;-66
2021/12/02 05:05:28;;;;;;;;;;;;;;;;;;1906503;28;7096;-65
2021/12/02 05:06:25;;;;;;;;;;;;;;;;;;1907078;28;7017;-65
2021/12/02 05:07:22;;;;;;;;;;;;;;;;;;1907912;28;7038;-66
2021/12/02 05:08:20;;;;;;;;;;;;;;;;;;1914281;28;7100;-66
2021/12/02 05:09:17;;;;;;;;;;;;;;;;;;1914381;28;7034;-65
2021/12/02 05:10:15;;;;;;;;;;;;;;;;;;1914380;28;7116;-65
2021/12/02 05:11:12;;;;;;;;;;;;;;;;;;1913843;28;7498;-65
2021/12/02 05:12:10;;;;;;;;;;;;;;;;;;1914797;28;7017;-65
2021/12/02 05:13:07;;;;;;;;;;;;;;;;;;1914430;28;7100;-66
2021/12/02 05:14:06;;;;;;;;;;;;;;;;;;1910963;28;7005;-65
2021/12/02 05:15:03;;;;;;;;;;;;;;;;;;1906320;28;7303;-66
2021/12/02 05:16:01;;;;;;;;;;;;;;;;;;1906067;28;7046;-66
2021/12/02 05:16:58;;;;;;;;;;;;;;;;;;1906770;28;7030;-66
2021/12/02 05:17:56;;;;;;;;;;;;;;;;;;1906232;28;7120;-66
2021/12/02 05:18:53;;;;;;;;;;;;;;;;;;1907010;28;7021;-66
2021/12/02 05:19:51;;;;;;;;;;;;;;;;;;1906264;28;7009;-66
2021/12/02 05:20:48;;;;;;;;;;;;;;;;;;1905915;28;7037;-65
2021/12/02 05:21:46;;;;;;;;;;;;;;;;;;1912891;28;7109;-65
2021/12/02 05:22:43;;;;;;;;;;;;;;;;;;1913319;28;7041;-65
2021/12/02 05:23:41;;;;;;;;;;;;;;;;;;1906726;28;7010;-65
2021/12/02 05:24:38;;;;;;;;;;;;;;;;;;1913147;28;7160;-65
2021/12/02 05:25:36;;;;;;;;;;;;;;;;;;1913040;28;7112;-66
2021/12/02 05:26:34;;;;;;;;;;;;;;;;;;1907374;28;8061;-66
2021/12/02 05:27:31;;;;;;;;;;;;;;;;;;1905902;28;7097;-65
2021/12/02 05:28:29;;;;;;;;;;;;;;;;;;1906395;28;8063;-66
2021/12/02 05:29:26;;;;;;;;;;;;;;;;;;1906548;28;7017;-66
2021/12/02 05:30:23;;;;;;;;;;;;;;;;;;1906147;28;7096;-66
2021/12/02 05:31:21;;;;;;;;;;;;;;;;;;1905580;28;7044;-66
2021/12/02 05:32:19;;;;;;;;;;;;;;;;;;1908995;28;7009;-65
2021/12/02 05:33:16;;;;;;;;;;;;;;;;;;1913198;28;7005;-66
2021/12/02 05:34:15;;;;;;;;;;;;;;;;;;1913205;28;7041;-65
2021/12/02 05:35:12;;;;;;;;;;;;;;;;;;1914348;28;7013;-65
2021/12/02 05:36:10;;;;;;;;;;;;;;;;;;1913888;28;7083;-66
2021/12/02 05:37:07;;;;;;;;;;;;;;;;;;1914275;28;7180;-66
2021/12/02 05:38:05;;;;;;;;;;;;;;;;;;1913899;28;8109;-65
2021/12/02 05:39:02;;;;;;;;;;;;;;;;;;1914513;28;7045;-66
2021/12/02 05:40:00;;;;;;;;;;;;;;;;;;1905795;28;8107;-66
2021/12/02 05:41:00;;;;;;;;;;;;;;;;;;1906718;28;7996;-65
2021/12/02 05:41:57;;;;;;;;;;;;;;;;;;1906992;28;7009;-65
2021/12/02 05:42:55;;;;;;;;;;;;;;;;;;1906689;28;7100;-65
2021/12/02 05:43:52;;;;;;;;;;;;;;;;;;1906943;28;7249;-65
2021/12/02 05:44:49;;;;;;;;;;;;;;;;;;1906411;28;7017;-65
2021/12/02 05:45:47;;;;;;;;;;;;;;;;;;1906764;28;7040;-65
2021/12/02 05:46:44;;;;;;;;;;;;;;;;;;1907396;28;7042;-66
2021/12/02 05:47:42;;;;;;;;;;;;;;;;;;1909282;28;7033;-67
2021/12/02 05:48:40;;;;;;;;;;;;;;;;;;1910463;28;7036;-66
2021/12/02 05:49:37;;;;;;;;;;;;;;;;;;1905483;28;7046;-65
2021/12/02 05:50:35;;;;;;;;;;;;;;;;;;1906660;28;7038;-65
2021/12/02 05:51:32;;;;;;;;;;;;;;;;;;1906958;28;7005;-66
2021/12/02 05:52:30;;;;;;;;;;;;;;;;;;1906969;28;7113;-65
2021/12/02 05:53:30;;;;;;;;;;;;;;;;;;1906944;28;7092;-65
2021/12/02 05:54:28;;;;;;;;;;;;;;;;;;1905939;28;7038;-65
2021/12/02 05:55:25;;;;;;;;;;;;;;;;;;1906597;28;8035;-65
2021/12/02 05:56:22;;;;;;;;;;;;;;;;;;1906529;28;8102;-66
2021/12/02 05:57:20;;;;;;;;;;;;;;;;;;1906214;28;7046;-66
2021/12/02 05:58:17;;;;;;;;;;;;;;;;;;1906538;28;7457;-66
2021/12/02 05:59:15;;;;;;;;;;;;;;;;;;1906673;28;7116;-66
2021/12/02 06:00:13;;;;;;;;;;;;;;;;;;1913435;28;7013;-66
2021/12/02 06:01:10;;;;;;;;;;;;;;;;;;1905819;28;7096;-65
2021/12/02 06:02:08;;;;;;;;;;;;;;;;;;1906520;28;7054;-65
2021/12/02 06:03:06;;;;;;;;;;;;;;;;;;1906244;28;7045;-65
2021/12/02 06:04:03;;;;;;;;;;;;;;;;;;1906418;28;7049;-66
2021/12/02 06:05:01;;;;;;;;;;;;;;;;;;1906673;28;7009;-65
2021/12/02 06:05:58;;;;;;;;;;;;;;;;;;1906347;28;7025;-65
2021/12/02 06:06:55;;;;;;;;;;;;;;;;;;1906422;28;7042;-65
2021/12/02 06:07:56;;;;;;;;;;;;;;;;;;1906888;28;7002;-65
2021/12/02 06:08:54;;;;;;;;;;;;;;;;;;1906472;28;7002;-66
2021/12/02 06:09:53;;;;;;;;;;;;;;;;;;1906530;28;7088;-66
2021/12/02 06:10:50;;;;;;;;;;;;;;;;;;1906710;28;7225;-65
2021/12/02 06:11:48;;;;;;;;;;;;;;;;;;1906019;28;7113;-66
2021/12/02 06:12:45;;;;;;;;;;;;;;;;;;1913209;28;7042;-66
2021/12/02 06:13:44;;;;;;;;;;;;;;;;;;1913448;28;7013;-65
2021/12/02 06:14:42;;;;;;;;;;;;;;;;;;1907561;28;7009;-66
2021/12/02 06:15:39;;;;;;;;;;;;;;;;;;1907184;28;8405;-66
2021/12/02 06:16:37;;;;;;;;;;;;;;;;;;1912868;28;7089;-66
2021/12/02 06:17:36;;;;;;;;;;;;;;;;;;1912861;28;7005;-66
2021/12/02 06:18:33;;;;;;;;;;;;;;;;;;1913212;28;7005;-66
2021/12/02 06:19:31;;;;;;;;;;;;;;;;;;1913954;28;7097;-66
2021/12/02 06:20:29;;;;;;;;;;;;;;;;;;1907677;28;7037;-65
2021/12/02 06:21:26;;;;;;;;;;;;;;;;;;1906096;28;7017;-66
2021/12/02 06:22:24;;;;;;;;;;;;;;;;;;1906567;28;7009;-66
2021/12/02 06:23:22;;;;;;;;;;;;;;;;;;1906015;28;7005;-66
2021/12/02 06:24:20;;;;;;;;;;;;;;;;;;1905759;28;7006;-66
2021/12/02 06:25:44;;;;;;;;;;;;;;;;;;1905754;28;7005;-66
2021/12/02 06:26:35;;;;;;;;;;;;;;;;;;1905475;28;7113;-66
2021/12/02 06:27:33;;;;;;;;;;;;;;;;;;1905483;28;7109;-66
2021/12/02 06:28:30;;;;;;;;;;;;;;;;;;1905684;28;7137;-65
2021/12/02 06:29:28;;;;;;;;;;;;;;;;;;1905767;28;7130;-66
2021/12/02 06:30:26;;;;;;;;;;;;;;;;;;1906309;28;7147;-65
2021/12/02 06:31:26;;;;;;;;;;;;;;;;;;1907207;28;7009;-66
2021/12/02 06:32:24;;;;;;;;;;;;;;;;;;1906249;28;7327;-66
2021/12/02 06:33:21;;;;;;;;;;;;;;;;;;1903704;28;7328;-66
2021/12/02 06:34:22;;;;;;;;;;;;;;;;;;1905186;28;6997;-65
2021/12/02 06:35:20;;;;;;;;;;;;;;;;;;1905849;28;7005;-66
2021/12/02 06:36:18;;;;;;;;;;;;;;;;;;1906450;28;7005;-65
2021/12/02 06:37:28;;;;;;;;;;;;;;;;;;1906574;28;7024;-66
2021/12/02 06:38:25;;;;;;;;;;;;;;;;;;1913873;28;7013;-66
2021/12/02 06:39:23;;;;;;;;;;;;;;;;;;1913921;28;7100;-66
2021/12/02 06:40:20;;;;;;;;;;;;;;;;;;1911354;28;7137;-65
2021/12/02 06:41:18;;;;;;;;;;;;;;;;;;1904896;28;8040;-65
2021/12/02 06:42:16;;;;;;;;;;;;;;;;;;1906200;28;7196;-65
2021/12/02 06:43:15;;;;;;;;;;;;;;;;;;1905990;28;7141;-65
2021/12/02 06:44:13;;;;;;;;;;;;;;;;;;1905913;28;7041;-66
2021/12/02 06:45:11;;;;;;;;;;;;;;;;;;1906197;28;7029;-66
2021/12/02 06:46:13;;;;;;;;;;;;;;;;;;1906013;28;7005;-66
2021/12/02 06:47:11;;;;;;;;;;;;;;;;;;1905918;28;7133;-65
2021/12/02 06:48:08;;;;;;;;;;;;;;;;;;1906797;28;7017;-65
2021/12/02 06:49:06;;;;;;;;;;;;;;;;;;1909651;28;7097;-65
2021/12/02 06:50:04;;;;;;;;;;;;;;;;;;1913789;28;7115;-66
2021/12/02 06:51:02;;;;;;;;;;;;;;;;;;1913847;28;7010;-66
2021/12/02 06:52:00;;;;;;;;;;;;;;;;;;1913809;28;7092;-66
2021/12/02 06:52:58;;;;;;;;;;;;;;;;;;1913667;28;7041;-65
2021/12/02 06:53:56;;;;;;;;;;;;;;;;;;1913562;28;7009;-66
2021/12/02 06:55:13;;;;;;;;;;;;;;;;;;1913463;28;7041;-66
2021/12/02 06:56:11;;;;;;;;;;;;;;;;;;1913295;28;7133;-66
2021/12/02 06:57:08;;;;;;;;;;;;;;;;;;1913791;28;7088;-65
2021/12/02 06:58:10;;;;;;;;;;;;;;;;;;1914335;28;7112;-65
2021/12/02 06:59:07;;;;;;;;;;;;;;;;;;1913432;28;7299;-66
2021/12/02 07:00:08;;;;;;;;;;;;;;;;;;1907846;28;7037;-66
2021/12/02 07:01:05;;;;;;;;;;;;;;;;;;1906016;28;7109;-65
2021/12/02 07:02:03;;;;;;;;;;;;;;;;;;1905526;28;7005;-65
2021/12/02 07:03:04;;;;;;;;;;;;;;;;;;1906036;28;7139;-66